Time;durP1;ratioP1;P1;durP2;ratioP2;P2;SDS_P1;SDS_P2;PMS_P1;PMS_P2;Temp;Humidity;BMP_temperature;BMP_pressure;BME280_temperature;BME280_humidity;BME280_pressure;Samples;Min_cycle;Max_cycle;Signal;HPM_P1;HPM_P2
2022/04/03 00:00:23;;;;;;;1.90;0.80;;;;;;;0.97;47.96;100847.78;4973897;28;20054;-62
2022/04/03 00:02:51;;;;;;;2.58;0.93;;;;;;;0.96;47.98;100841.81;4973878;28;20153;-62
2022/04/03 00:05:22;;;;;;;5.03;1.10;;;;;;;0.95;48.56;100840.97;4973536;28;20664;-62
2022/04/03 00:07:49;;;;;;;3.15;1.33;;;;;;;0.98;48.38;100839.31;4974951;28;20055;-62
2022/04/03 00:10:20;;;;;;;3.65;1.17;;;;;;;1.01;48.58;100835.19;4974579;28;20054;-62
2022/04/03 00:12:47;;;;;;;2.85;0.95;;;;;;;1.05;48.70;100842.16;4972648;28;20051;-62
2022/04/03 00:15:17;;;;;;;3.28;1.00;;;;;;;1.06;48.80;100838.78;4974558;28;20066;-62
2022/04/03 00:17:46;;;;;;;1.90;0.98;;;;;;;1.06;48.20;100831.13;4974256;28;20050;-62
2022/04/03 00:20:16;;;;;;;3.17;1.38;;;;;;;1.07;48.34;100835.41;4974003;28;20648;-62
2022/04/03 00:22:48;;;;;;;2.22;1.10;;;;;;;1.08;48.22;100832.03;4978146;28;20583;-62
2022/04/03 00:25:18;;;;;;;2.25;0.98;;;;;;;1.08;48.04;100832.03;4980898;28;20191;-62
2022/04/03 00:27:50;;;;;;;2.30;1.10;;;;;;;1.08;48.21;100826.94;4980681;28;20054;-62
2022/04/03 00:30:18;;;;;;;1.80;0.88;;;;;;;1.08;48.21;100826.94;4980762;28;20431;-62
2022/04/03 00:32:46;;;;;;;2.28;1.10;;;;;;;1.09;48.14;100832.91;4980849;28;20054;-61
2022/04/03 00:35:16;;;;;;;2.65;0.93;;;;;;;1.08;48.23;100821.81;4980243;28;20055;-62
2022/04/03 00:37:44;;;;;;;1.80;1.17;;;;;;;1.08;47.97;100824.38;4981006;28;20050;-62
2022/04/03 00:40:23;;;;;;;1.15;0.70;;;;;;;1.06;47.89;100827.69;4999074;28;20050;-62
2022/04/03 00:42:54;;;;;;;2.20;0.90;;;;;;;1.03;47.77;100823.31;4999801;28;20147;-62
2022/04/03 00:45:22;;;;;;;3.15;1.25;;;;;;;1.01;47.55;100821.53;4986879;28;20462;-62
2022/04/03 00:47:56;;;;;;;1.60;1.00;;;;;;;1.01;47.65;100821.53;4980461;28;20400;-62
2022/04/03 00:50:26;;;;;;;3.13;1.00;;;;;;;0.99;47.62;100821.50;4980300;28;20475;-62
2022/04/03 00:52:56;;;;;;;1.77;0.90;;;;;;;1.01;47.47;100819.88;4980239;28;20456;-62
2022/04/03 00:55:25;;;;;;;4.40;0.90;;;;;;;1.00;47.48;100815.56;4979565;28;20063;-62
2022/04/03 00:57:55;;;;;;;5.15;1.15;;;;;;;1.00;47.76;100823.22;4980755;28;20055;-62
2022/04/03 01:00:23;;;;;;;1.95;1.02;;;;;;;1.01;47.85;100814.75;4980298;28;20084;-62
2022/04/03 01:02:52;;;;;;;2.80;1.25;;;;;;;0.99;47.65;100816.41;4980529;28;20081;-62
2022/04/03 01:05:27;;;;;;;1.95;1.13;;;;;;;0.98;47.72;100812.09;4980162;28;20413;-62
2022/04/03 01:07:57;;;;;;;2.30;1.08;;;;;;;0.97;47.88;100812.94;4980392;28;20459;-62
2022/04/03 01:10:26;;;;;;;2.70;0.75;;;;;;;0.98;47.49;100812.09;4980260;28;20050;-62
2022/04/03 01:13:08;;;;;;;1.95;0.95;;;;;;;1.00;47.93;100813.03;4980033;28;20672;-62
2022/04/03 01:15:51;;;;;;;3.53;1.98;;;;;;;0.99;47.35;100821.50;4980218;28;20427;-62
2022/04/03 01:18:19;;;;;;;1.73;1.10;;;;;;;1.01;47.50;100812.19;4980558;28;20055;-62
2022/04/03 01:20:47;;;;;;;3.00;1.20;;;;;;;1.03;47.88;100818.22;4964419;28;20048;-62
2022/04/03 01:23:17;;;;;;;2.25;1.17;;;;;;;1.04;47.98;100820.00;4961021;28;20058;-62
2022/04/03 01:25:46;;;;;;;3.47;1.52;;;;;;;1.07;48.14;100820.09;4961206;29;20118;-62
2022/04/03 01:28:17;;;;;;;2.75;1.27;;;;;;;1.11;48.37;100816.81;4960958;28;20047;-62
2022/04/03 01:30:47;;;;;;;2.33;1.10;;;;;;;1.13;48.61;100815.16;4961170;29;20047;-62
2022/04/03 01:33:17;;;;;;;2.17;1.00;;;;;;;1.15;48.58;100810.97;4959605;28;20054;-62
2022/04/03 01:35:48;;;;;;;3.72;1.45;;;;;;;1.15;48.33;100810.97;4963574;28;20058;-62
2022/04/03 01:38:18;;;;;;;3.42;1.30;;;;;;;1.15;48.30;100813.53;4979939;28;20047;-62
2022/04/03 01:40:54;;;;;;;2.33;1.40;;;;;;;1.16;48.83;100812.72;4996763;28;20082;-62
2022/04/03 01:43:24;;;;;;;4.45;1.52;;;;;;;1.17;48.58;100817.00;4996185;28;20403;-62
2022/04/03 01:45:53;;;;;;;3.42;1.38;;;;;;;1.19;48.69;100815.34;4979644;28;20054;-62
2022/04/03 01:48:21;;;;;;;5.93;1.83;;;;;;;1.21;48.91;100815.41;4976966;28;20054;-62
2022/04/03 01:50:50;;;;;;;2.95;1.75;;;;;;;1.20;48.91;100817.09;4976754;28;20069;-62
2022/04/03 01:53:18;;;;;;;4.13;1.48;;;;;;;1.20;49.23;100819.63;4976942;28;20134;-62
2022/04/03 01:56:01;;;;;;;3.60;1.85;;;;;;;1.23;49.10;100817.19;4976881;28;20054;-62
2022/04/03 01:58:29;;;;;;;2.78;1.50;;;;;;;1.25;49.43;100825.75;4975965;28;20062;-62
2022/04/03 02:00:59;;;;;;;3.25;1.70;;;;;;;1.23;49.41;100817.19;4976666;28;20051;-62
2022/04/03 02:03:35;;;;;;;4.68;1.70;;;;;;;1.20;49.48;100822.19;4976394;28;20070;-62
2022/04/03 02:06:03;;;;;;;3.55;1.20;;;;;;;1.19;49.35;100823.00;4976580;28;20047;-62
2022/04/03 02:08:30;;;;;;;2.88;1.20;;;;;;;1.17;49.41;100817.00;4976262;28;20047;-62
2022/04/03 02:11:01;;;;;;;4.20;1.35;;;;;;;1.16;49.52;100822.91;4976524;28;20051;-61
2022/04/03 02:13:31;;;;;;;3.85;1.50;;;;;;;1.15;49.78;100818.63;4957429;29;20059;-61
2022/04/03 02:15:59;;;;;;;4.03;1.33;;;;;;;1.14;49.65;100816.91;4957246;29;20053;-61
2022/04/03 02:21:09;;;;;;;2.50;1.33;;;;;;;1.13;49.55;100827.06;4976124;28;20054;-62
2022/04/03 02:23:39;;;;;;;2.60;1.40;;;;;;;1.09;49.74;100828.66;4976040;28;20479;-62
2022/04/03 02:26:10;;;;;;;2.72;1.60;;;;;;;1.09;49.71;100823.56;4976394;28;20134;-62
2022/04/03 02:28:40;;;;;;;5.88;2.00;;;;;;;1.06;49.64;100815.78;4976470;28;20050;-62
2022/04/03 02:31:08;;;;;;;3.97;1.92;;;;;;;1.03;50.10;100820.78;4976245;28;20050;-62
2022/04/03 02:33:38;;;;;;;4.30;1.67;;;;;;;1.00;50.46;100823.22;4976213;28;20070;-61
2022/04/03 02:36:08;;;;;;;4.95;1.95;;;;;;;0.97;50.69;100825.69;4976023;28;20055;-61
2022/04/03 02:38:38;;;;;;;4.47;1.95;;;;;;;0.95;50.55;100829.88;4981646;28;20141;-62
2022/04/03 02:41:08;;;;;;;3.95;2.00;;;;;;;0.95;50.84;100819.66;4995519;28;20054;-62
2022/04/03 02:43:47;;;;;;;6.03;2.50;;;;;;;0.93;50.75;100827.28;4994829;28;20128;-62
2022/04/03 02:46:17;;;;;;;6.25;2.45;;;;;;;0.90;50.89;100816.09;4956348;28;20087;-62
2022/04/03 02:48:47;;;;;;;7.85;2.83;;;;;;;0.86;51.12;100825.34;4972822;28;20051;-61
2022/04/03 02:51:18;;;;;;;14.50;4.18;;;;;;;0.82;51.32;100827.75;4975712;28;20050;-61
2022/04/03 02:53:47;;;;;;;16.42;6.20;;;;;;;0.78;51.29;100820.81;4975629;28;20125;-62
2022/04/03 02:56:18;;;;;;;17.40;5.13;;;;;;;0.76;51.51;100818.22;4975771;28;20121;-61
2022/04/03 02:58:49;;;;;;;9.98;3.40;;;;;;;0.76;51.57;100818.22;4975626;28;20141;-61
2022/04/03 03:01:20;;;;;;;7.95;2.90;;;;;;;0.76;52.02;100819.91;4975871;28;20058;-62
2022/04/03 03:03:46;;;;;;;4.65;2.08;;;;;;;0.75;51.90;100810.53;4975422;28;20088;-60
2022/04/03 03:06:15;;;;;;;6.97;3.17;;;;;;;0.72;52.15;100811.28;4975473;28;20058;-61
2022/04/03 03:08:46;;;;;;;11.48;3.45;;;;;;;0.69;51.79;100815.44;4975514;28;20050;-61
2022/04/03 03:11:14;;;;;;;8.05;3.50;;;;;;;0.63;52.43;100816.97;4975202;28;20059;-61
2022/04/03 03:13:44;;;;;;;6.55;2.58;;;;;;;0.60;52.18;100821.97;4975398;28;20062;-62
2022/04/03 03:16:22;;;;;;;5.88;3.00;;;;;;;0.56;52.34;100824.38;4975362;28;20059;-61
2022/04/03 03:18:50;;;;;;;5.80;3.35;;;;;;;0.48;52.35;100824.06;4975386;28;20062;-62
2022/04/03 03:21:16;;;;;;;5.85;2.60;;;;;;;0.40;52.89;100820.41;4969854;28;20051;-62
2022/04/03 03:23:44;;;;;;;3.78;2.38;;;;;;;0.34;52.63;100820.19;4975043;28;20058;-62
2022/04/03 03:26:13;;;;;;;3.70;2.45;;;;;;;0.27;52.45;100819.13;4974978;28;20503;-62
2022/04/03 03:28:40;;;;;;;4.65;2.63;;;;;;;0.20;52.95;100808.66;4975103;28;20058;-62
2022/04/03 03:31:08;;;;;;;5.55;2.90;;;;;;;0.16;53.24;100806.84;4974952;28;20069;-62
2022/04/03 03:33:42;;;;;;;3.63;2.42;;;;;;;0.14;53.32;100816.09;4975011;28;20058;-62
2022/04/03 03:36:12;;;;;;;3.45;2.20;;;;;;;0.14;52.99;100811.88;4974983;28;20051;-62
2022/04/03 03:38:41;;;;;;;6.15;2.33;;;;;;;0.15;53.64;100810.19;4981013;28;20112;-62
2022/04/03 03:41:11;;;;;;;6.63;2.28;;;;;;;0.13;53.68;100812.69;4988763;28;20078;-62
2022/04/03 03:43:39;;;;;;;4.60;2.10;;;;;;;0.12;53.75;100815.19;4967635;28;20054;-62
2022/04/03 03:46:09;;;;;;;4.10;2.22;;;;;;;0.09;53.57;100812.53;4980288;28;20059;-62
2022/04/03 03:48:44;;;;;;;5.40;2.30;;;;;;;0.08;54.33;100813.34;4968553;28;20069;-62
2022/04/03 03:51:14;;;;;;;5.63;2.38;;;;;;;0.05;54.06;100815.78;4955469;29;20055;-62
2022/04/03 03:53:43;;;;;;;4.85;2.28;;;;;;;0.03;54.17;100814.88;4955430;29;20102;-62
2022/04/03 03:56:13;;;;;;;5.30;2.45;;;;;;;0.01;54.51;100819.03;4956486;28;20059;-61
2022/04/03 03:58:41;;;;;;;4.47;1.90;;;;;;;-0.02;54.62;100807.03;4974653;28;20050;-62
2022/04/03 04:01:10;;;;;;;4.82;1.95;;;;;;;-0.06;54.96;100811.16;4972426;28;20492;-61
2022/04/03 04:03:40;;;;;;;3.75;1.70;;;;;;;-0.08;55.11;100812.78;4969697;28;20065;-62
2022/04/03 04:06:09;;;;;;;4.50;2.05;;;;;;;-0.08;55.30;100812.78;4962778;28;20051;-62
2022/04/03 04:08:39;;;;;;;6.75;2.30;;;;;;;-0.10;55.38;100814.41;4960121;28;20055;-61
2022/04/03 04:11:08;;;;;;;4.93;2.28;;;;;;;-0.11;55.61;100805.03;4974062;28;20157;-61
2022/04/03 04:13:39;;;;;;;5.53;2.30;;;;;;;-0.15;55.06;100810.81;4955748;28;20055;-61
2022/04/03 04:16:10;;;;;;;5.78;2.33;;;;;;;-0.18;56.34;100817.50;4974457;28;20427;-62
2022/04/03 04:18:39;;;;;;;6.18;2.53;;;;;;;-0.21;56.24;100815.69;4974107;28;20051;-62
2022/04/03 04:21:15;;;;;;;5.10;2.40;;;;;;;-0.21;56.17;100809.75;4967891;28;20046;-62
2022/04/03 04:23:43;;;;;;;;;;;;;;;-0.22;57.60;100813.97;4965358;28;20133;-62
2022/04/03 04:26:11;;;;;;;5.60;2.38;;;;;;;-0.22;56.51;100813.97;4955516;29;19937;-62
2022/04/03 04:28:38;;;;;;;4.40;2.00;;;;;;;-0.24;56.40;100810.50;4970263;28;20050;-62
2022/04/03 04:31:06;;;;;;;5.05;2.25;;;;;;;-0.25;56.51;100813.84;4962331;28;20055;-62
2022/04/03 04:33:36;;;;;;;8.48;2.50;;;;;;;-0.26;55.96;100816.34;4964014;28;20132;-62
2022/04/03 04:36:06;;;;;;;5.47;2.60;;;;;;;-0.28;55.90;100813.75;4964649;28;20134;-61
2022/04/03 04:38:36;;;;;;;5.78;2.20;;;;;;;-0.29;56.46;100822.19;4970320;28;20512;-62
2022/04/03 04:41:03;;;;;;;6.63;2.85;;;;;;;-0.33;56.55;100821.22;4965834;28;20093;-62
2022/04/03 04:43:31;;;;;;;5.78;2.80;;;;;;;-0.33;57.46;100820.34;4963351;28;20062;-62
2022/04/03 04:46:01;;;;;;;4.05;2.10;;;;;;;-0.34;56.88;100824.59;4973840;28;20058;-62
2022/04/03 04:48:27;;;;;;;4.05;2.30;;;;;;;-0.33;56.91;100820.34;4964327;28;20118;-62
2022/04/03 04:50:57;;;;;;;5.18;2.80;;;;;;;-0.33;56.97;100820.34;4966035;28;20062;-62
2022/04/03 04:53:25;;;;;;;4.55;2.22;;;;;;;-0.25;57.13;100816.41;4955198;29;20074;-61
2022/04/03 04:56:03;;;;;;;4.80;2.20;;;;;;;-0.15;57.65;100820.16;4954920;29;20067;-62
2022/04/03 04:58:31;;;;;;;3.53;2.30;;;;;;;0.05;57.98;100818.34;4954946;29;20074;-62
2022/04/03 05:00:58;;;;;;;6.80;2.15;;;;;;;0.30;58.04;100826.88;4964177;28;20514;-62
2022/04/03 05:03:25;;;;;;;5.63;2.38;;;;;;;0.57;57.55;100821.88;4971622;28;20115;-62
2022/04/03 05:05:52;;;;;;;5.30;2.20;;;;;;;0.84;57.27;100826.13;4959936;28;20733;-62
2022/04/03 05:08:23;;;;;;;5.72;2.25;;;;;;;1.10;56.93;100825.28;4967853;28;20052;-62
2022/04/03 05:10:53;;;;;;;6.75;2.67;;;;;;;1.39;55.78;100822.75;4958309;29;20102;-62
2022/04/03 05:13:25;;;;;;;5.07;2.38;;;;;;;1.65;55.02;100821.84;4958270;29;20464;-62
2022/04/03 05:15:55;;;;;;;5.45;2.38;;;;;;;1.80;54.05;100832.50;4962059;28;20503;-61
2022/04/03 05:18:23;;;;;;;4.70;2.30;;;;;;;1.89;53.31;100826.78;4964142;28;20051;-61
2022/04/03 05:20:50;;;;;;;3.17;1.80;;;;;;;1.87;53.00;100831.84;4970275;28;20051;-60
2022/04/03 05:23:20;;;;;;;4.07;2.30;;;;;;;1.82;52.99;100835.09;4964719;28;20370;-61
2022/04/03 05:25:52;;;;;;;6.75;2.80;;;;;;;1.71;53.12;100836.47;4968430;28;20090;-61
2022/04/03 05:28:37;;;;;;;4.50;2.42;;;;;;;1.63;53.41;100843.94;4956683;29;20529;-61
2022/04/03 05:31:07;;;;;;;6.00;2.55;;;;;;;1.60;53.91;100841.28;4956528;29;20051;-62
2022/04/03 05:33:35;;;;;;;4.22;2.05;;;;;;;1.62;53.98;100847.31;4956456;29;20043;-60
2022/04/03 05:36:05;;;;;;;6.68;2.17;;;;;;;1.67;54.05;100850.88;4965334;28;20058;-62
2022/04/03 05:38:32;;;;;;;5.60;2.58;;;;;;;1.71;54.22;100845.03;4980728;28;20050;-62
2022/04/03 05:41:02;;;;;;;7.38;3.00;;;;;;;1.82;54.19;100845.31;4994805;28;20495;-62
2022/04/03 05:43:34;;;;;;;4.60;2.45;;;;;;;1.93;53.74;100853.28;4976605;28;20388;-62
2022/04/03 05:46:04;;;;;;;6.40;2.30;;;;;;;1.95;53.49;100846.53;4995264;28;20050;-62
2022/04/03 05:48:34;;;;;;;6.88;2.75;;;;;;;1.95;53.57;100851.66;4982600;28;20062;-62
2022/04/03 05:51:02;;;;;;;4.82;2.65;;;;;;;1.97;53.52;100852.56;4977432;28;20055;-62
2022/04/03 05:53:31;;;;;;;6.65;2.80;;;;;;;1.98;53.38;100857.72;4977391;28;20061;-62
2022/04/03 05:56:01;;;;;;;8.35;3.00;;;;;;;1.97;53.26;100860.22;4976968;28;20055;-62
2022/04/03 05:58:30;;;;;;;6.30;3.75;;;;;;;1.95;53.27;100860.19;4974436;28;20123;-62
2022/04/03 06:01:04;;;;;;;7.03;2.88;;;;;;;1.98;53.59;100862.81;4960488;28;20059;-62
2022/04/03 06:03:33;;;;;;;4.95;2.70;;;;;;;1.98;53.13;100862.81;4977055;28;20055;-62
2022/04/03 06:08:41;;;;;;;4.53;2.50;;;;;;;2.04;53.62;100863.00;4994706;28;20379;-62
2022/04/03 06:11:11;;;;;;;8.30;2.92;;;;;;;2.10;53.50;100857.22;4994786;28;20497;-62
2022/04/03 06:13:40;;;;;;;7.43;2.90;;;;;;;2.20;53.41;100859.19;4976920;28;20047;-62
2022/04/03 06:16:13;;;;;;;7.40;3.03;;;;;;;2.36;53.14;100856.22;4976330;28;20062;-62
2022/04/03 06:18:43;;;;;;;5.38;2.88;;;;;;;2.61;53.49;100857.75;4976128;28;20172;-62
2022/04/03 06:21:14;;;;;;;5.05;2.83;;;;;;;3.04;53.58;100859.66;4976500;28;20069;-62
2022/04/03 06:23:44;;;;;;;8.82;2.97;;;;;;;3.44;52.74;100865.72;4976553;28;20428;-62
2022/04/03 06:26:12;;;;;;;5.75;2.80;;;;;;;3.71;50.99;100863.78;4976484;28;20140;-62
2022/04/03 06:28:39;;;;;;;10.23;3.60;;;;;;;3.89;50.38;100865.00;4969136;28;20458;-61
2022/04/03 06:31:06;;;;;;;8.93;3.85;;;;;;;3.94;49.05;100863.41;4989016;28;20065;-62
2022/04/03 06:33:36;;;;;;;4.80;3.10;;;;;;;3.97;49.21;100858.34;4989824;28;20046;-62
2022/04/03 06:36:06;;;;;;;7.85;2.90;;;;;;;3.96;49.34;100861.72;4982966;28;20476;-62
2022/04/03 06:38:35;;;;;;;5.68;2.55;;;;;;;3.90;49.11;100861.59;4977185;28;20058;-62
2022/04/03 06:41:07;;;;;;;8.05;3.15;;;;;;;3.87;48.77;100858.97;4989822;28;20479;-62
2022/04/03 06:43:35;;;;;;;4.53;2.03;;;;;;;3.84;49.13;100861.47;4995659;28;20086;-62
2022/04/03 06:46:04;;;;;;;5.82;2.17;;;;;;;3.82;49.39;100847.75;4991883;28;20061;-62
2022/04/03 06:48:32;;;;;;;5.32;2.40;;;;;;;3.85;48.97;100858.09;4989563;28;20054;-62
2022/04/03 06:51:03;;;;;;;4.60;2.30;;;;;;;3.87;48.74;100861.53;4995188;28;20522;-62
2022/04/03 06:53:30;;;;;;;5.70;2.30;;;;;;;3.92;49.40;100865.06;4987009;28;20141;-62
2022/04/03 06:55:59;;;;;;;6.57;2.42;;;;;;;4.06;49.47;100861.06;4991968;28;20054;-62
2022/04/03 06:58:29;;;;;;;5.82;2.75;;;;;;;4.22;49.26;100855.44;4976389;28;20434;-61
2022/04/03 07:00:56;;;;;;;3.88;2.08;;;;;;;4.40;48.87;100860.03;4992085;28;20372;-61
2022/04/03 07:03:26;;;;;;;6.10;2.70;;;;;;;4.62;48.56;100858.72;4978616;28;20094;-62
2022/04/03 07:05:56;;;;;;;5.05;2.33;;;;;;;4.87;48.67;100863.47;4993363;28;20431;-62
2022/04/03 07:08:28;;;;;;;5.85;2.00;;;;;;;5.11;47.29;100851.84;4994471;28;20665;-62
2022/04/03 07:10:55;;;;;;;4.38;1.90;;;;;;;5.25;47.24;100860.66;4989325;28;20055;-62
2022/04/03 07:13:23;;;;;;;6.00;1.80;;;;;;;5.44;46.27;100862.66;4987970;28;20054;-62
2022/04/03 07:15:49;;;;;;;7.50;2.55;;;;;;;5.49;45.60;100861.00;4995194;28;20054;-62
2022/04/03 07:18:16;;;;;;;5.25;2.30;;;;;;;5.50;45.64;100861.88;4990115;28;20065;-62
2022/04/03 07:20:45;;;;;;;7.93;2.00;;;;;;;5.46;45.36;100863.53;4994968;28;20050;-62
2022/04/03 07:23:13;;;;;;;2.95;1.33;;;;;;;5.38;45.79;100862.56;4994198;28;20097;-62
2022/04/03 07:25:43;;;;;;;3.40;1.52;;;;;;;5.33;45.86;100864.22;4995030;28;20081;-62
2022/04/03 07:28:11;;;;;;;4.40;1.48;;;;;;;5.26;45.43;100867.53;4993150;28;20500;-62
2022/04/03 07:30:37;;;;;;;3.17;1.20;;;;;;;5.19;45.34;100870.81;4989876;28;20069;-62
2022/04/03 07:33:07;;;;;;;2.35;1.20;;;;;;;5.11;45.38;100872.41;4987894;28;20053;-62
2022/04/03 07:35:37;;;;;;;2.58;1.05;;;;;;;5.09;45.79;100869.81;4975587;28;20051;-62
2022/04/03 07:38:05;;;;;;;4.60;1.40;;;;;;;5.04;45.44;100872.31;4983249;28;20157;-62
2022/04/03 07:40:33;;;;;;;3.63;1.13;;;;;;;5.02;45.50;100866.28;4987660;28;20090;-62
2022/04/03 07:43:03;;;;;;;1.55;0.93;;;;;;;5.01;45.07;100879.97;4979184;28;20059;-62
2022/04/03 07:45:33;;;;;;;2.92;1.20;;;;;;;5.06;45.59;100875.75;4978540;28;20063;-62
2022/04/03 07:48:00;;;;;;;3.53;1.20;;;;;;;5.13;45.22;100870.72;4990269;28;20085;-62
2022/04/03 07:50:28;;;;;;;2.65;1.02;;;;;;;5.24;45.22;100876.91;4989766;28;20085;-62
2022/04/03 07:52:54;;;;;;;2.65;1.15;;;;;;;5.37;45.38;100881.41;4993950;28;20530;-62
2022/04/03 07:55:23;;;;;;;4.93;1.40;;;;;;;5.52;45.15;100886.75;4994444;28;20062;-62
2022/04/03 07:57:50;;;;;;;2.35;1.20;;;;;;;5.70;44.61;100876.72;4991260;28;20082;-62
2022/04/03 08:00:18;;;;;;;3.72;1.38;;;;;;;5.86;44.98;100876.97;4980600;28;20380;-62
2022/04/03 08:02:47;;;;;;;3.35;1.60;;;;;;;5.94;44.56;100875.38;4988704;28;20057;-62
2022/04/03 08:05:15;;;;;;;3.35;1.63;;;;;;;5.99;44.94;100873.72;4985651;28;20058;-62
2022/04/03 08:07:44;;;;;;;3.55;2.10;;;;;;;5.98;44.50;100877.16;4993987;28;20069;-62
2022/04/03 08:10:18;;;;;;;3.45;1.98;;;;;;;5.97;44.27;100868.56;4994168;28;20057;-62
2022/04/03 08:12:50;;;;;;;4.50;1.52;;;;;;;5.98;43.97;100870.28;4985801;28;20133;-62
2022/04/03 08:15:19;;;;;;;5.75;1.60;;;;;;;6.16;43.59;100861.06;4993846;28;20192;-62
2022/04/03 08:17:46;;;;;;;8.68;1.88;;;;;;;6.43;43.62;100857.94;4987483;28;20058;-62
2022/04/03 08:20:18;;;;;;;2.38;1.35;;;;;;;6.70;43.56;100868.50;4994083;28;20144;-62
2022/04/03 08:22:46;;;;;;;2.47;0.95;;;;;;;6.99;42.21;100865.34;4993731;28;20092;-62
2022/04/03 08:25:15;;;;;;;3.53;1.00;;;;;;;7.19;41.19;100856.03;4993824;28;20530;-62
2022/04/03 08:27:46;;;;;;;3.08;1.25;;;;;;;7.37;39.99;100858.78;4994716;28;20133;-62
2022/04/03 08:30:15;;;;;;;2.28;1.20;;;;;;;7.57;39.78;100859.75;4978911;28;20120;-61
2022/04/03 08:32:45;;;;;;;3.47;1.17;;;;;;;7.66;37.93;100858.06;4985387;28;20050;-61
2022/04/03 08:35:15;;;;;;;1.75;0.90;;;;;;;7.80;37.85;100852.16;4991962;28;20138;-61
2022/04/03 08:37:42;;;;;;;3.50;0.88;;;;;;;7.89;36.51;100862.53;4986072;28;20144;-61
2022/04/03 08:40:10;;;;;;;1.30;0.75;;;;;;;7.97;36.14;100859.97;4981153;28;20061;-61
2022/04/03 08:42:40;;;;;;;1.83;0.90;;;;;;;8.08;36.17;100860.00;4993927;28;20072;-61
2022/04/03 08:45:13;;;;;;;2.40;0.70;;;;;;;8.30;36.14;100863.53;4991465;28;20057;-62
2022/04/03 08:47:53;;;;;;;2.78;1.20;;;;;;;8.62;35.23;100861.91;4991654;28;20050;-62
2022/04/03 08:50:24;;;;;;;3.30;0.80;;;;;;;8.89;35.34;100860.25;4997960;28;20054;-62
2022/04/03 08:52:52;;;;;;;4.38;1.10;;;;;;;9.15;34.33;100863.69;4994473;28;20073;-62
2022/04/03 08:55:29;;;;;;;2.75;1.15;;;;;;;9.34;33.43;100855.03;4976432;28;20061;-62
2022/04/03 08:57:59;;;;;;;2.78;1.25;;;;;;;9.40;32.23;100854.19;4977674;28;20483;-62
2022/04/03 09:00:27;;;;;;;2.78;0.98;;;;;;;9.46;33.01;100860.22;4977769;28;20047;-62
2022/04/03 09:03:01;;;;;;;3.20;1.13;;;;;;;9.66;31.88;100852.41;4977927;28;20073;-62
2022/04/03 09:05:41;;;;;;;2.90;1.00;;;;;;;9.95;31.04;100852.31;4978102;28;20066;-62
2022/04/03 09:08:10;;;;;;;1.60;1.20;;;;;;;10.20;32.23;100849.63;4978175;28;20134;-62
2022/04/03 09:10:46;;;;;;;3.10;1.00;;;;;;;10.38;31.61;100846.94;4977720;28;20051;-62
2022/04/03 09:13:27;;;;;;;2.70;1.00;;;;;;;10.61;30.02;100847.69;4977622;28;20362;-62
2022/04/03 09:15:57;;;;;;;1.48;1.10;;;;;;;10.80;30.82;100847.56;4977519;28;20082;-62
2022/04/03 09:18:42;;;;;;;2.22;1.10;;;;;;;11.09;29.17;100840.41;4977989;28;20065;-62
2022/04/03 09:21:26;;;;;;;3.70;1.20;;;;;;;11.30;29.55;100832.44;4977487;28;20054;-62
2022/04/03 09:24:00;;;;;;;2.22;1.38;;;;;;;11.53;29.22;100836.56;4978003;28;20070;-62
2022/04/03 09:29:11;;;;;;;1.77;0.98;;;;;;;11.74;28.60;100814.66;4977347;28;20058;-62
2022/04/03 09:31:39;;;;;;;2.75;1.27;;;;;;;11.82;28.05;100824.13;4977832;28;20050;-62
2022/04/03 09:34:17;;;;;;;2.00;0.80;;;;;;;11.96;28.01;100822.22;4977418;28;20126;-62
2022/04/03 09:37:00;;;;;;;2.15;0.93;;;;;;;12.22;27.29;100823.63;4977488;28;20054;-62
2022/04/03 09:39:36;;;;;;;3.25;1.23;;;;;;;12.32;27.17;100820.00;4989806;28;20050;-63
2022/04/03 09:42:06;;;;;;;2.15;1.17;;;;;;;12.27;27.24;100812.28;4989583;28;20460;-62
2022/04/03 09:44:36;;;;;;;2.83;1.48;;;;;;;12.16;27.61;100814.19;4979643;28;20054;-61
2022/04/03 09:47:16;;;;;;;4.40;1.48;;;;;;;12.07;27.26;100809.09;4977675;28;20050;-61
2022/04/03 09:49:51;;;;;;;2.90;1.15;;;;;;;11.90;27.70;100816.22;4977214;28;20055;-61
2022/04/03 09:52:39;;;;;;;4.57;1.50;;;;;;;11.58;27.67;100811.41;4977028;28;20059;-61
2022/04/03 09:55:29;;;;;;;4.70;1.52;;;;;;;11.31;27.65;100812.53;4976093;28;20050;-61
2022/04/03 09:58:06;;;;;;;3.47;1.10;;;;;;;10.99;28.19;100810.25;4977214;28;20066;-61
2022/04/03 10:00:41;;;;;;;3.58;1.50;;;;;;;10.74;28.44;100802.66;4975090;28;20372;-61
2022/04/03 10:03:19;;;;;;;3.08;1.05;;;;;;;10.77;29.28;100800.91;4978635;28;20051;-62
2022/04/03 10:05:54;;;;;;;2.42;1.15;;;;;;;10.84;28.69;100798.25;4989041;28;20417;-62
2022/04/03 10:08:23;;;;;;;2.33;1.10;;;;;;;11.05;29.16;100786.84;4988136;28;20138;-62
2022/04/03 10:10:50;;;;;;;2.25;1.13;;;;;;;11.35;28.25;100786.53;4980515;28;20109;-62
2022/04/03 10:13:21;;;;;;;2.22;1.10;;;;;;;11.38;27.86;100783.03;4980231;28;20491;-62
2022/04/03 10:15:52;;;;;;;3.00;1.35;;;;;;;11.23;27.70;100781.47;4988236;28;20506;-62
2022/04/03 10:18:20;;;;;;;4.47;1.00;;;;;;;11.11;28.58;100791.97;4987861;28;20062;-62
2022/04/03 10:20:51;;;;;;;5.45;1.55;;;;;;;11.06;28.08;100788.56;4979872;28;20055;-62
2022/04/03 10:23:25;;;;;;;4.55;1.20;;;;;;;10.98;28.77;100790.38;4991707;28;20050;-62
2022/04/03 10:25:56;;;;;;;2.75;1.02;;;;;;;10.88;28.61;100788.72;4995608;28;20046;-61
2022/04/03 10:28:32;;;;;;;3.22;1.00;;;;;;;10.69;28.84;100788.88;4993566;28;20463;-62
2022/04/03 10:31:08;;;;;;;5.00;1.25;;;;;;;10.50;29.17;100796.81;4976287;28;20491;-62
2022/04/03 10:33:42;;;;;;;14.23;2.50;;;;;;;10.31;28.85;100780.50;4974911;28;20078;-62
2022/04/03 10:36:14;;;;;;;12.13;2.33;;;;;;;10.24;28.95;100776.22;4986185;28;20407;-62
2022/04/03 10:38:45;;;;;;;3.17;1.38;;;;;;;10.19;29.31;100770.19;4987700;28;20068;-62
2022/04/03 10:41:29;;;;;;;2.65;1.50;;;;;;;10.30;29.26;100768.41;4979116;28;20061;-62
2022/04/03 10:44:14;;;;;;;1.85;0.90;;;;;;;10.45;29.20;100773.50;4972835;28;20054;-62
2022/04/03 10:47:19;;;;;;;1.40;0.80;;;;;;;10.51;28.44;100765.69;4990364;28;20060;-62
2022/04/03 10:49:52;;;;;;;3.00;0.90;;;;;;;10.40;28.56;100754.53;4970216;28;20451;-62
2022/04/03 10:52:59;;;;;;;2.65;0.88;;;;;;;10.37;28.38;100759.72;4983890;28;20728;-61
2022/04/03 10:55:36;;;;;;;2.80;1.13;;;;;;;10.27;28.22;100758.06;4964785;28;20065;-62
2022/04/03 10:58:18;;;;;;;3.60;1.30;;;;;;;10.09;29.42;100749.53;4987659;28;20085;-62
2022/04/03 11:00:46;;;;;;;4.28;1.67;;;;;;;10.03;29.28;100753.88;4980189;28;20360;-62
2022/04/03 11:03:39;;;;;;;4.57;1.10;;;;;;;9.97;28.97;100754.78;4977924;28;20078;-62
2022/04/03 11:06:39;;;;;;;3.35;0.80;;;;;;;9.94;28.89;100752.22;4985077;28;20109;-64
2022/04/03 11:09:27;;;;;;;5.05;1.40;;;;;;;9.73;29.10;100736.75;4913135;29;20139;-62
2022/04/03 11:11:59;;;;;;;2.97;1.20;;;;;;;9.69;30.16;100745.41;4897849;29;20136;-62
2022/04/03 11:14:58;;;;;;;4.35;1.45;;;;;;;9.67;29.48;100736.78;4909137;29;20048;-62
2022/04/03 11:17:47;;;;;;;4.22;1.13;;;;;;;9.64;30.33;100745.44;4892629;29;20059;-62
2022/04/03 11:20:30;;;;;;;2.83;1.17;;;;;;;9.51;30.55;100740.31;4913931;29;20083;-62
2022/04/03 11:23:01;;;;;;;2.30;1.20;;;;;;;9.30;31.28;100743.81;4880231;29;20064;-62
2022/04/03 11:25:30;;;;;;;3.42;1.15;;;;;;;9.21;31.21;100743.84;4911255;29;20048;-62
2022/04/03 11:27:59;;;;;;;3.88;1.27;;;;;;;9.13;31.51;100736.09;4905033;29;20079;-62
2022/04/03 11:30:29;;;;;;;5.28;1.30;;;;;;;9.05;31.71;100737.84;4909754;29;20107;-62
2022/04/03 11:33:00;;;;;;;4.10;0.82;;;;;;;8.96;32.00;100736.16;4899967;29;20060;-62
2022/04/03 11:35:35;;;;;;;6.43;3.60;;;;;;;8.76;32.19;100736.16;4906264;29;20059;-62
2022/04/03 11:38:04;;;;;;;17.42;2.97;;;;;;;8.62;32.37;100732.72;4986429;28;20084;-62
2022/04/03 11:40:36;;;;;;;3.85;1.40;;;;;;;8.60;32.33;100737.03;4981189;28;20479;-62
2022/04/03 11:43:17;;;;;;;3.58;1.30;;;;;;;8.56;32.65;100732.72;4990490;28;20058;-62
2022/04/03 11:45:55;;;;;;;3.67;1.10;;;;;;;8.55;32.84;100731.00;4984210;28;20096;-62
2022/04/03 11:48:25;;;;;;;3.92;1.13;;;;;;;8.61;32.49;100723.25;4986626;28;20050;-62
2022/04/03 11:54:01;;;;;;;2.95;1.10;;;;;;;8.71;31.58;100711.19;4993238;28;20057;-93
2022/04/03 11:56:38;;;;;;;1.90;0.95;;;;;;;8.79;30.74;100705.13;4996202;28;20053;-92
2022/04/03 11:59:07;;;;;;;2.20;0.75;;;;;;;8.85;31.34;100715.50;4995725;28;20050;-93
2022/04/03 12:01:38;;;;;;;2.95;0.80;;;;;;;8.78;30.96;100713.75;4996496;28;20573;-95